sensor_id;sensor_type;location;lat;lon;timestamp;pressure;altitude;pressure_sealevel;temperature;humidity
79705;BME280;69940;53.120;8.764;2023-08-12T00:00:28;101792.00;;;21.69;73.73
79705;BME280;69940;53.120;8.764;2023-08-12T00:02:59;101793.00;;;21.66;73.99
79705;BME280;69940;53.120;8.764;2023-08-12T00:05:28;101793.00;;;21.64;74.23
79705;BME280;69940;53.120;8.764;2023-08-12T00:07:58;101793.00;;;21.61;74.32
79705;BME280;69940;53.120;8.764;2023-08-12T00:10:28;101792.00;;;21.58;74.49
79705;BME280;69940;53.120;8.764;2023-08-12T00:12:58;101793.00;;;21.55;74.51
79705;BME280;69940;53.120;8.764;2023-08-12T00:15:28;101793.00;;;21.53;74.52
79705;BME280;69940;53.120;8.764;2023-08-12T00:17:58;101794.00;;;21.52;74.65
79705;BME280;69940;53.120;8.764;2023-08-12T00:20:28;101793.00;;;21.50;74.66
79705;BME280;69940;53.120;8.764;2023-08-12T00:22:58;101792.00;;;21.50;74.83
79705;BME280;69940;53.120;8.764;2023-08-12T00:25:28;101790.00;;;21.49;74.94
79705;BME280;69940;53.120;8.764;2023-08-12T00:27:58;101790.00;;;21.48;75.00
79705;BME280;69940;53.120;8.764;2023-08-12T00:30:28;101789.00;;;21.47;75.13
79705;BME280;69940;53.120;8.764;2023-08-12T00:32:58;101788.00;;;21.46;75.35
79705;BME280;69940;53.120;8.764;2023-08-12T00:35:28;101788.00;;;21.45;75.52
79705;BME280;69940;53.120;8.764;2023-08-12T00:37:58;101790.00;;;21.44;75.69
79705;BME280;69940;53.120;8.764;2023-08-12T00:40:28;101792.00;;;21.43;75.75
79705;BME280;69940;53.120;8.764;2023-08-12T00:42:58;101794.00;;;21.43;75.91
79705;BME280;69940;53.120;8.764;2023-08-12T00:45:28;101795.00;;;21.42;76.03
79705;BME280;69940;53.120;8.764;2023-08-12T00:47:58;101794.00;;;21.42;76.11
79705;BME280;69940;53.120;8.764;2023-08-12T00:50:28;101793.00;;;21.42;76.12
79705;BME280;69940;53.120;8.764;2023-08-12T00:52:58;101791.00;;;21.42;76.29
79705;BME280;69940;53.120;8.764;2023-08-12T00:55:28;101788.00;;;21.42;76.26
79705;BME280;69940;53.120;8.764;2023-08-12T00:57:58;101786.00;;;21.42;76.34
79705;BME280;69940;53.120;8.764;2023-08-12T01:00:28;101785.00;;;21.42;76.47
79705;BME280;69940;53.120;8.764;2023-08-12T01:03:00;101783.00;;;21.41;76.47
79705;BME280;69940;53.120;8.764;2023-08-12T01:05:29;101781.00;;;21.41;76.73
79705;BME280;69940;53.120;8.764;2023-08-12T01:07:58;101780.00;;;21.40;76.87
79705;BME280;69940;53.120;8.764;2023-08-12T01:10:33;101779.00;;;21.39;77.12
79705;BME280;69940;53.120;8.764;2023-08-12T01:15:29;101780.00;;;21.37;77.38
79705;BME280;69940;53.120;8.764;2023-08-12T01:18:00;101786.00;;;21.35;77.60
79705;BME280;69940;53.120;8.764;2023-08-12T01:20:28;101792.00;;;21.34;77.69
79705;BME280;69940;53.120;8.764;2023-08-12T01:23:09;101797.00;;;21.32;77.80
79705;BME280;69940;53.120;8.764;2023-08-12T01:25:28;101800.00;;;21.30;77.88
79705;BME280;69940;53.120;8.764;2023-08-12T01:27:58;101801.00;;;21.29;77.89
79705;BME280;69940;53.120;8.764;2023-08-12T01:30:28;101801.00;;;21.28;77.79
79705;BME280;69940;53.120;8.764;2023-08-12T01:35:33;101797.00;;;21.27;77.98
79705;BME280;69940;53.120;8.764;2023-08-12T01:38:02;101796.00;;;21.27;78.02
79705;BME280;69940;53.120;8.764;2023-08-12T01:40:29;101797.00;;;21.27;77.81
79705;BME280;69940;53.120;8.764;2023-08-12T01:42:58;101798.00;;;21.27;77.86
79705;BME280;69940;53.120;8.764;2023-08-12T01:45:30;101799.00;;;21.27;77.87
79705;BME280;69940;53.120;8.764;2023-08-12T01:47:58;101798.00;;;21.26;77.81
79705;BME280;69940;53.120;8.764;2023-08-12T01:50:28;101797.00;;;21.27;77.77
79705;BME280;69940;53.120;8.764;2023-08-12T01:52:59;101795.00;;;21.27;77.92
79705;BME280;69940;53.120;8.764;2023-08-12T01:55:28;101793.00;;;21.27;78.13
79705;BME280;69940;53.120;8.764;2023-08-12T01:57:58;101791.00;;;21.27;78.41
79705;BME280;69940;53.120;8.764;2023-08-12T02:00:28;101789.00;;;21.27;78.56
79705;BME280;69940;53.120;8.764;2023-08-12T02:02:58;101788.00;;;21.27;78.74
79705;BME280;69940;53.120;8.764;2023-08-12T02:05:28;101787.00;;;21.26;78.87
79705;BME280;69940;53.120;8.764;2023-08-12T02:07:58;101787.00;;;21.25;79.01
79705;BME280;69940;53.120;8.764;2023-08-12T02:10:28;101787.00;;;21.24;79.15
79705;BME280;69940;53.120;8.764;2023-08-12T02:12:58;101786.00;;;21.22;79.28
79705;BME280;69940;53.120;8.764;2023-08-12T02:15:28;101785.00;;;21.21;79.36
79705;BME280;69940;53.120;8.764;2023-08-12T02:17:59;101784.00;;;21.19;79.57
79705;BME280;69940;53.120;8.764;2023-08-12T02:20:28;101782.00;;;21.17;79.60
79705;BME280;69940;53.120;8.764;2023-08-12T02:22:58;101779.00;;;21.15;79.61
79705;BME280;69940;53.120;8.764;2023-08-12T02:25:28;101774.00;;;21.14;79.62
79705;BME280;69940;53.120;8.764;2023-08-12T02:27:58;101769.00;;;21.13;79.68
79705;BME280;69940;53.120;8.764;2023-08-12T02:30:29;101765.00;;;21.12;79.73
79705;BME280;69940;53.120;8.764;2023-08-12T02:32:58;101761.00;;;21.12;79.78
79705;BME280;69940;53.120;8.764;2023-08-12T02:35:28;101757.00;;;21.11;79.81
79705;BME280;69940;53.120;8.764;2023-08-12T02:37:58;101753.00;;;21.10;79.99
79705;BME280;69940;53.120;8.764;2023-08-12T02:40:28;101749.00;;;21.09;80.11
79705;BME280;69940;53.120;8.764;2023-08-12T02:42:58;101746.00;;;21.08;80.21
79705;BME280;69940;53.120;8.764;2023-08-12T02:45:28;101744.00;;;21.08;80.36
79705;BME280;69940;53.120;8.764;2023-08-12T02:47:58;101743.00;;;21.07;80.52
79705;BME280;69940;53.120;8.764;2023-08-12T02:50:28;101740.00;;;21.06;80.71
79705;BME280;69940;53.120;8.764;2023-08-12T02:52:58;101737.00;;;21.05;80.83
79705;BME280;69940;53.120;8.764;2023-08-12T02:55:28;101731.00;;;21.05;80.90
79705;BME280;69940;53.120;8.764;2023-08-12T02:57:58;101726.00;;;21.04;81.07
79705;BME280;69940;53.120;8.764;2023-08-12T03:00:28;101722.00;;;21.03;81.20
79705;BME280;69940;53.120;8.764;2023-08-12T03:02:58;101719.00;;;21.02;81.40
79705;BME280;69940;53.120;8.764;2023-08-12T03:05:28;101718.00;;;21.00;81.49
79705;BME280;69940;53.120;8.764;2023-08-12T03:08:05;101716.00;;;20.99;81.57
79705;BME280;69940;53.120;8.764;2023-08-12T03:10:28;101715.00;;;20.97;81.68
79705;BME280;69940;53.120;8.764;2023-08-12T03:12:58;101714.00;;;20.96;81.80
79705;BME280;69940;53.120;8.764;2023-08-12T03:15:28;101713.00;;;20.95;81.88
79705;BME280;69940;53.120;8.764;2023-08-12T03:17:58;101712.00;;;20.94;81.91
79705;BME280;69940;53.120;8.764;2023-08-12T03:20:28;101710.00;;;20.93;82.02
79705;BME280;69940;53.120;8.764;2023-08-12T03:22:58;101707.00;;;20.92;81.97
79705;BME280;69940;53.120;8.764;2023-08-12T03:25:28;101706.00;;;20.91;82.00
79705;BME280;69940;53.120;8.764;2023-08-12T03:27:58;101704.00;;;20.90;82.00
79705;BME280;69940;53.120;8.764;2023-08-12T03:30:28;101702.00;;;20.89;82.08
79705;BME280;69940;53.120;8.764;2023-08-12T03:32:58;101701.00;;;20.88;82.26
79705;BME280;69940;53.120;8.764;2023-08-12T03:35:28;101701.00;;;20.86;82.50
79705;BME280;69940;53.120;8.764;2023-08-12T03:37:58;101699.00;;;20.84;82.54
79705;BME280;69940;53.120;8.764;2023-08-12T03:40:28;101696.00;;;20.83;82.56
79705;BME280;69940;53.120;8.764;2023-08-12T03:42:58;101694.00;;;20.83;82.65
79705;BME280;69940;53.120;8.764;2023-08-12T03:45:28;101693.00;;;20.81;82.88
79705;BME280;69940;53.120;8.764;2023-08-12T03:47:58;101693.00;;;20.79;83.12
79705;BME280;69940;53.120;8.764;2023-08-12T03:50:28;101696.00;;;20.77;83.43
79705;BME280;69940;53.120;8.764;2023-08-12T03:52:58;101698.00;;;20.74;83.51
79705;BME280;69940;53.120;8.764;2023-08-12T03:55:30;101700.00;;;20.73;83.52
79705;BME280;69940;53.120;8.764;2023-08-12T03:57:58;101699.00;;;20.72;83.57
79705;BME280;69940;53.120;8.764;2023-08-12T04:00:28;101699.00;;;20.72;83.51
79705;BME280;69940;53.120;8.764;2023-08-12T04:02:58;101698.00;;;20.71;83.78
79705;BME280;69940;53.120;8.764;2023-08-12T04:05:28;101698.00;;;20.70;84.13
79705;BME280;69940;53.120;8.764;2023-08-12T04:07:58;101700.00;;;20.69;84.19
79705;BME280;69940;53.120;8.764;2023-08-12T04:10:28;101700.00;;;20.69;84.24
79705;BME280;69940;53.120;8.764;2023-08-12T04:12:58;101700.00;;;20.69;84.22
79705;BME280;69940;53.120;8.764;2023-08-12T04:15:28;101701.00;;;20.70;84.28
79705;BME280;69940;53.120;8.764;2023-08-12T04:17:59;101701.00;;;20.70;84.42
79705;BME280;69940;53.120;8.764;2023-08-12T04:20:28;101700.00;;;20.70;84.51
79705;BME280;69940;53.120;8.764;2023-08-12T04:22:58;101699.00;;;20.71;84.56
79705;BME280;69940;53.120;8.764;2023-08-12T04:25:28;101698.00;;;20.72;84.60
79705;BME280;69940;53.120;8.764;2023-08-12T04:27:58;101699.00;;;20.72;84.67
79705;BME280;69940;53.120;8.764;2023-08-12T04:30:28;101699.00;;;20.73;84.71
79705;BME280;69940;53.120;8.764;2023-08-12T04:32:58;101700.00;;;20.72;84.88
79705;BME280;69940;53.120;8.764;2023-08-12T04:35:30;101700.00;;;20.72;84.93
79705;BME280;69940;53.120;8.764;2023-08-12T04:37:58;101699.00;;;20.72;84.99
79705;BME280;69940;53.120;8.764;2023-08-12T04:40:28;101698.00;;;20.72;85.06
79705;BME280;69940;53.120;8.764;2023-08-12T04:42:58;101698.00;;;20.71;85.05
79705;BME280;69940;53.120;8.764;2023-08-12T04:45:28;101698.00;;;20.71;85.13
79705;BME280;69940;53.120;8.764;2023-08-12T04:47:58;101700.00;;;20.69;85.39
79705;BME280;69940;53.120;8.764;2023-08-12T04:50:31;101701.00;;;20.67;85.68
79705;BME280;69940;53.120;8.764;2023-08-12T04:52:58;101701.00;;;20.66;85.81
79705;BME280;69940;53.120;8.764;2023-08-12T04:55:28;101701.00;;;20.65;85.90
79705;BME280;69940;53.120;8.764;2023-08-12T04:57:58;101700.00;;;20.65;85.97
79705;BME280;69940;53.120;8.764;2023-08-12T05:00:29;101699.00;;;20.65;85.94
79705;BME280;69940;53.120;8.764;2023-08-12T05:02:58;101699.00;;;20.65;85.97
79705;BME280;69940;53.120;8.764;2023-08-12T05:05:28;101701.00;;;20.66;86.04
79705;BME280;69940;53.120;8.764;2023-08-12T05:07:58;101702.00;;;20.66;86.02
79705;BME280;69940;53.120;8.764;2023-08-12T05:10:28;101702.00;;;20.66;86.02
79705;BME280;69940;53.120;8.764;2023-08-12T05:12:58;101703.00;;;20.66;86.01
79705;BME280;69940;53.120;8.764;2023-08-12T05:15:28;101703.00;;;20.67;86.05
79705;BME280;69940;53.120;8.764;2023-08-12T05:17:58;101702.00;;;20.68;86.07
79705;BME280;69940;53.120;8.764;2023-08-12T05:20:28;101701.00;;;20.69;85.99
79705;BME280;69940;53.120;8.764;2023-08-12T05:22:58;101701.00;;;20.69;85.76
79705;BME280;69940;53.120;8.764;2023-08-12T05:25:28;101699.00;;;20.70;85.86
79705;BME280;69940;53.120;8.764;2023-08-12T05:27:58;101698.00;;;20.70;86.08
79705;BME280;69940;53.120;8.764;2023-08-12T05:30:28;101696.00;;;20.71;86.21
79705;BME280;69940;53.120;8.764;2023-08-12T05:32:58;101693.00;;;20.72;86.20
79705;BME280;69940;53.120;8.764;2023-08-12T05:35:28;101692.00;;;20.73;86.05
79705;BME280;69940;53.120;8.764;2023-08-12T05:37:58;101691.00;;;20.74;86.13
79705;BME280;69940;53.120;8.764;2023-08-12T05:40:28;101689.00;;;20.74;86.14
79705;BME280;69940;53.120;8.764;2023-08-12T05:42:58;101687.00;;;20.75;86.07
79705;BME280;69940;53.120;8.764;2023-08-12T05:45:28;101683.00;;;20.75;86.05
79705;BME280;69940;53.120;8.764;2023-08-12T05:47:58;101679.00;;;20.76;85.99
79705;BME280;69940;53.120;8.764;2023-08-12T05:50:28;101676.00;;;20.76;86.09
79705;BME280;69940;53.120;8.764;2023-08-12T05:52:58;101674.00;;;20.77;86.25
79705;BME280;69940;53.120;8.764;2023-08-12T05:55:28;101673.00;;;20.77;86.30
79705;BME280;69940;53.120;8.764;2023-08-12T05:57:58;101671.00;;;20.77;86.33
79705;BME280;69940;53.120;8.764;2023-08-12T06:00:29;101668.00;;;20.78;86.41
79705;BME280;69940;53.120;8.764;2023-08-12T06:02:58;101666.00;;;20.79;86.45
79705;BME280;69940;53.120;8.764;2023-08-12T06:05:28;101664.00;;;20.81;86.41
79705;BME280;69940;53.120;8.764;2023-08-12T06:07:58;101660.00;;;20.84;86.09
79705;BME280;69940;53.120;8.764;2023-08-12T06:10:28;101656.00;;;20.88;85.93
79705;BME280;69940;53.120;8.764;2023-08-12T06:12:58;101654.00;;;20.92;85.85
79705;BME280;69940;53.120;8.764;2023-08-12T06:15:28;101653.00;;;20.95;85.95
79705;BME280;69940;53.120;8.764;2023-08-12T06:17:59;101652.00;;;20.97;85.98
79705;BME280;69940;53.120;8.764;2023-08-12T06:20:28;101650.00;;;21.01;85.76
79705;BME280;69940;53.120;8.764;2023-08-12T06:22:58;101649.00;;;21.04;85.69
79705;BME280;69940;53.120;8.764;2023-08-12T06:25:28;101647.00;;;21.07;85.78
79705;BME280;69940;53.120;8.764;2023-08-12T06:27:59;101647.00;;;21.10;85.54
79705;BME280;69940;53.120;8.764;2023-08-12T06:30:28;101646.00;;;21.12;85.49
79705;BME280;69940;53.120;8.764;2023-08-12T06:32:58;101646.00;;;21.14;85.23
79705;BME280;69940;53.120;8.764;2023-08-12T06:35:28;101646.00;;;21.15;85.17
79705;BME280;69940;53.120;8.764;2023-08-12T06:37:58;101646.00;;;21.16;85.30
79705;BME280;69940;53.120;8.764;2023-08-12T06:40:28;101647.00;;;21.17;85.16
79705;BME280;69940;53.120;8.764;2023-08-12T06:42:58;101648.00;;;21.18;85.07
79705;BME280;69940;53.120;8.764;2023-08-12T06:45:28;101648.00;;;21.18;84.93
79705;BME280;69940;53.120;8.764;2023-08-12T06:47:58;101648.00;;;21.19;84.83
79705;BME280;69940;53.120;8.764;2023-08-12T06:50:28;101647.00;;;21.21;84.81
79705;BME280;69940;53.120;8.764;2023-08-12T06:52:58;101646.00;;;21.22;84.77
79705;BME280;69940;53.120;8.764;2023-08-12T06:55:28;101647.00;;;21.23;84.69
79705;BME280;69940;53.120;8.764;2023-08-12T06:57:59;101647.00;;;21.22;84.64
79705;BME280;69940;53.120;8.764;2023-08-12T07:00:28;101648.00;;;21.22;84.75
79705;BME280;69940;53.120;8.764;2023-08-12T07:02:58;101648.00;;;21.21;84.74
79705;BME280;69940;53.120;8.764;2023-08-12T07:05:28;101647.00;;;21.19;84.88
79705;BME280;69940;53.120;8.764;2023-08-12T07:07:58;101648.00;;;21.18;85.01
79705;BME280;69940;53.120;8.764;2023-08-12T07:10:28;101648.00;;;21.18;85.07
79705;BME280;69940;53.120;8.764;2023-08-12T07:12:58;101647.00;;;21.17;84.97
79705;BME280;69940;53.120;8.764;2023-08-12T07:15:28;101647.00;;;21.17;85.02
79705;BME280;69940;53.120;8.764;2023-08-12T07:17:58;101646.00;;;21.16;85.04
79705;BME280;69940;53.120;8.764;2023-08-12T07:20:28;101644.00;;;21.16;85.20
79705;BME280;69940;53.120;8.764;2023-08-12T07:22:58;101643.00;;;21.17;85.15
79705;BME280;69940;53.120;8.764;2023-08-12T07:25:28;101641.00;;;21.17;85.11
79705;BME280;69940;53.120;8.764;2023-08-12T07:27:58;101638.00;;;21.19;85.05
79705;BME280;69940;53.120;8.764;2023-08-12T07:30:28;101635.00;;;21.22;85.00
79705;BME280;69940;53.120;8.764;2023-08-12T07:32:58;101633.00;;;21.25;85.00
79705;BME280;69940;53.120;8.764;2023-08-12T07:35:28;101631.00;;;21.29;85.06
79705;BME280;69940;53.120;8.764;2023-08-12T07:37:58;101626.00;;;21.34;84.82
79705;BME280;69940;53.120;8.764;2023-08-12T07:40:28;101622.00;;;21.39;84.87
79705;BME280;69940;53.120;8.764;2023-08-12T07:42:58;101619.00;;;21.43;84.93
79705;BME280;69940;53.120;8.764;2023-08-12T07:45:28;101618.00;;;21.46;85.04
79705;BME280;69940;53.120;8.764;2023-08-12T07:47:58;101615.00;;;21.48;84.69
79705;BME280;69940;53.120;8.764;2023-08-12T07:50:28;101613.00;;;21.51;84.66
79705;BME280;69940;53.120;8.764;2023-08-12T07:52:58;101613.00;;;21.54;84.87
79705;BME280;69940;53.120;8.764;2023-08-12T07:55:28;101610.00;;;21.56;84.97
79705;BME280;69940;53.120;8.764;2023-08-12T07:57:58;101607.00;;;21.59;84.99
79705;BME280;69940;53.120;8.764;2023-08-12T08:00:28;101607.00;;;21.62;85.09
79705;BME280;69940;53.120;8.764;2023-08-12T08:02:58;101605.00;;;21.66;84.99
79705;BME280;69940;53.120;8.764;2023-08-12T08:05:28;101601.00;;;21.69;84.90
79705;BME280;69940;53.120;8.764;2023-08-12T08:07:58;101599.00;;;21.73;84.88
79705;BME280;69940;53.120;8.764;2023-08-12T08:10:28;101599.00;;;21.76;84.60
79705;BME280;69940;53.120;8.764;2023-08-12T08:12:58;101601.00;;;21.79;84.06
79705;BME280;69940;53.120;8.764;2023-08-12T08:15:28;101604.00;;;21.81;83.86
79705;BME280;69940;53.120;8.764;2023-08-12T08:17:58;101604.00;;;21.81;83.50
79705;BME280;69940;53.120;8.764;2023-08-12T08:22:58;101604.00;;;21.81;83.53
79705;BME280;69940;53.120;8.764;2023-08-12T08:25:28;101603.00;;;21.81;83.56
79705;BME280;69940;53.120;8.764;2023-08-12T08:27:58;101604.00;;;21.82;83.78
79705;BME280;69940;53.120;8.764;2023-08-12T08:30:28;101603.00;;;21.82;83.62
79705;BME280;69940;53.120;8.764;2023-08-12T08:32:58;101603.00;;;21.82;83.64
79705;BME280;69940;53.120;8.764;2023-08-12T08:35:28;101602.00;;;21.81;83.65
79705;BME280;69940;53.120;8.764;2023-08-12T08:37:58;101604.00;;;21.79;83.57
79705;BME280;69940;53.120;8.764;2023-08-12T08:40:28;101604.00;;;21.77;83.60
79705;BME280;69940;53.120;8.764;2023-08-12T08:43:02;101604.00;;;21.74;83.74
79705;BME280;69940;53.120;8.764;2023-08-12T08:45:29;101605.00;;;21.71;83.98
79705;BME280;69940;53.120;8.764;2023-08-12T08:47:59;101605.00;;;21.69;84.14
79705;BME280;69940;53.120;8.764;2023-08-12T08:50:29;101605.00;;;21.67;84.11
79705;BME280;69940;53.120;8.764;2023-08-12T08:52:59;101606.00;;;21.65;84.24
79705;BME280;69940;53.120;8.764;2023-08-12T08:55:28;101606.00;;;21.64;84.39
79705;BME280;69940;53.120;8.764;2023-08-12T08:57:58;101606.00;;;21.62;84.69
79705;BME280;69940;53.120;8.764;2023-08-12T09:00:28;101606.00;;;21.61;84.79
79705;BME280;69940;53.120;8.764;2023-08-12T09:02:59;101606.00;;;21.60;84.97
79705;BME280;69940;53.120;8.764;2023-08-12T09:05:29;101605.00;;;21.60;85.16
79705;BME280;69940;53.120;8.764;2023-08-12T09:07:58;101605.00;;;21.60;85.15
79705;BME280;69940;53.120;8.764;2023-08-12T09:10:29;101603.00;;;21.62;85.25
79705;BME280;69940;53.120;8.764;2023-08-12T09:12:59;101602.00;;;21.65;85.27
79705;BME280;69940;53.120;8.764;2023-08-12T09:15:28;101601.00;;;21.69;84.90
79705;BME280;69940;53.120;8.764;2023-08-12T09:17:58;101599.00;;;21.71;84.52
79705;BME280;69940;53.120;8.764;2023-08-12T09:20:28;101597.00;;;21.73;84.62
79705;BME280;69940;53.120;8.764;2023-08-12T09:22:59;101596.00;;;21.74;84.69
79705;BME280;69940;53.120;8.764;2023-08-12T09:25:30;101595.00;;;21.75;84.70
79705;BME280;69940;53.120;8.764;2023-08-12T09:27:59;101594.00;;;21.74;84.68
79705;BME280;69940;53.120;8.764;2023-08-12T09:30:29;101595.00;;;21.73;84.69
79705;BME280;69940;53.120;8.764;2023-08-12T09:32:59;101596.00;;;21.71;84.78
79705;BME280;69940;53.120;8.764;2023-08-12T09:35:32;101597.00;;;21.70;84.85
79705;BME280;69940;53.120;8.764;2023-08-12T09:37:58;101596.00;;;21.68;84.99
79705;BME280;69940;53.120;8.764;2023-08-12T09:40:29;101594.00;;;21.66;85.19
79705;BME280;69940;53.120;8.764;2023-08-12T09:42:58;101589.00;;;21.64;85.33
79705;BME280;69940;53.120;8.764;2023-08-12T09:45:28;101586.00;;;21.62;85.75
79705;BME280;69940;53.120;8.764;2023-08-12T09:47:58;101583.00;;;21.61;85.97
79705;BME280;69940;53.120;8.764;2023-08-12T09:50:28;101578.00;;;21.59;86.19
79705;BME280;69940;53.120;8.764;2023-08-12T09:52:58;101575.00;;;21.56;86.34
79705;BME280;69940;53.120;8.764;2023-08-12T09:55:28;101570.00;;;21.54;86.59
79705;BME280;69940;53.120;8.764;2023-08-12T09:57:59;101564.00;;;21.51;86.81
79705;BME280;69940;53.120;8.764;2023-08-12T10:00:28;101559.00;;;21.49;86.98
79705;BME280;69940;53.120;8.764;2023-08-12T10:02:59;101555.00;;;21.48;87.17
79705;BME280;69940;53.120;8.764;2023-08-12T10:05:31;101551.00;;;21.46;87.14
79705;BME280;69940;53.120;8.764;2023-08-12T10:07:59;101546.00;;;21.45;87.28
79705;BME280;69940;53.120;8.764;2023-08-12T10:10:29;101542.00;;;21.44;87.38
79705;BME280;69940;53.120;8.764;2023-08-12T10:12:59;101539.00;;;21.43;87.45
79705;BME280;69940;53.120;8.764;2023-08-12T10:15:28;101536.00;;;21.43;87.52
79705;BME280;69940;53.120;8.764;2023-08-12T10:17:58;101533.00;;;21.42;87.60
79705;BME280;69940;53.120;8.764;2023-08-12T10:20:29;101531.00;;;21.41;87.69
79705;BME280;69940;53.120;8.764;2023-08-12T10:22:59;101531.00;;;21.41;87.77
79705;BME280;69940;53.120;8.764;2023-08-12T10:25:32;101530.00;;;21.41;87.87
79705;BME280;69940;53.120;8.764;2023-08-12T10:27:58;101528.00;;;21.41;87.84
79705;BME280;69940;53.120;8.764;2023-08-12T10:30:29;101527.00;;;21.41;87.88
79705;BME280;69940;53.120;8.764;2023-08-12T10:32:58;101527.00;;;21.40;88.08
79705;BME280;69940;53.120;8.764;2023-08-12T10:35:44;101528.00;;;21.40;88.18
79705;BME280;69940;53.120;8.764;2023-08-12T10:37:58;101527.00;;;21.40;88.22
79705;BME280;69940;53.120;8.764;2023-08-12T10:40:28;101523.00;;;21.39;88.25
79705;BME280;69940;53.120;8.764;2023-08-12T10:42:58;101518.00;;;21.39;88.18
79705;BME280;69940;53.120;8.764;2023-08-12T10:45:41;101511.00;;;21.38;88.16
79705;BME280;69940;53.120;8.764;2023-08-12T10:50:31;101504.00;;;21.38;88.18
79705;BME280;69940;53.120;8.764;2023-08-12T10:52:58;101496.00;;;21.39;88.16
79705;BME280;69940;53.120;8.764;2023-08-12T10:55:28;101491.00;;;21.41;88.17
79705;BME280;69940;53.120;8.764;2023-08-12T10:57:59;101491.00;;;21.45;88.04
79705;BME280;69940;53.120;8.764;2023-08-12T11:00:29;101493.00;;;21.52;88.03
79705;BME280;69940;53.120;8.764;2023-08-12T11:02:58;101492.00;;;21.58;87.75
79705;BME280;69940;53.120;8.764;2023-08-12T11:05:36;101492.00;;;21.64;87.67
79705;BME280;69940;53.120;8.764;2023-08-12T11:08:06;101492.00;;;21.70;87.60
79705;BME280;69940;53.120;8.764;2023-08-12T11:10:34;101492.00;;;21.74;87.39
79705;BME280;69940;53.120;8.764;2023-08-12T11:12:58;101494.00;;;21.78;87.27
79705;BME280;69940;53.120;8.764;2023-08-12T11:15:29;101494.00;;;21.81;87.34
79705;BME280;69940;53.120;8.764;2023-08-12T11:17:59;101493.00;;;21.82;87.35
79705;BME280;69940;53.120;8.764;2023-08-12T11:20:28;101492.00;;;21.84;87.39
79705;BME280;69940;53.120;8.764;2023-08-12T11:23:02;101492.00;;;21.86;87.41
79705;BME280;69940;53.120;8.764;2023-08-12T11:25:29;101490.00;;;21.88;87.49
79705;BME280;69940;53.120;8.764;2023-08-12T11:27:58;101488.00;;;21.89;87.31
79705;BME280;69940;53.120;8.764;2023-08-12T11:30:28;101487.00;;;21.91;87.38
79705;BME280;69940;53.120;8.764;2023-08-12T11:33:00;101485.00;;;21.93;87.37
79705;BME280;69940;53.120;8.764;2023-08-12T11:35:29;101481.00;;;21.97;87.18
79705;BME280;69940;53.120;8.764;2023-08-12T11:37:58;101477.00;;;22.02;87.07
79705;BME280;69940;53.120;8.764;2023-08-12T11:40:28;101474.00;;;22.07;87.11
79705;BME280;69940;53.120;8.764;2023-08-12T11:42:58;101469.00;;;22.12;86.63
79705;BME280;69940;53.120;8.764;2023-08-12T11:45:29;101466.00;;;22.19;86.64
79705;BME280;69940;53.120;8.764;2023-08-12T11:47:58;101465.00;;;22.27;86.36
79705;BME280;69940;53.120;8.764;2023-08-12T11:50:28;101461.00;;;22.33;85.92
79705;BME280;69940;53.120;8.764;2023-08-12T11:52:59;101456.00;;;22.37;85.56
79705;BME280;69940;53.120;8.764;2023-08-12T11:55:28;101453.00;;;22.39;85.69
79705;BME280;69940;53.120;8.764;2023-08-12T11:57:58;101449.00;;;22.39;85.86
79705;BME280;69940;53.120;8.764;2023-08-12T12:00:28;101446.00;;;22.38;85.86
79705;BME280;69940;53.120;8.764;2023-08-12T12:02:58;101443.00;;;22.38;85.76
79705;BME280;69940;53.120;8.764;2023-08-12T12:05:29;101443.00;;;22.40;85.90
79705;BME280;69940;53.120;8.764;2023-08-12T12:08:00;101443.00;;;22.40;85.99
79705;BME280;69940;53.120;8.764;2023-08-12T12:10:32;101443.00;;;22.39;86.05
79705;BME280;69940;53.120;8.764;2023-08-12T12:12:59;101442.00;;;22.35;86.10
79705;BME280;69940;53.120;8.764;2023-08-12T12:15:28;101438.00;;;22.30;86.00
79705;BME280;69940;53.120;8.764;2023-08-12T12:17:58;101436.00;;;22.26;85.99
79705;BME280;69940;53.120;8.764;2023-08-12T12:20:30;101433.00;;;22.22;86.35
79705;BME280;69940;53.120;8.764;2023-08-12T12:23:06;101430.00;;;22.15;86.75
79705;BME280;69940;53.120;8.764;2023-08-12T12:25:28;101426.00;;;22.09;86.73
79705;BME280;69940;53.120;8.764;2023-08-12T12:27:58;101423.00;;;22.04;86.87
79705;BME280;69940;53.120;8.764;2023-08-12T12:30:28;101420.00;;;22.00;86.81
79705;BME280;69940;53.120;8.764;2023-08-12T12:32:58;101418.00;;;21.96;87.07
79705;BME280;69940;53.120;8.764;2023-08-12T12:35:28;101415.00;;;21.94;87.08
79705;BME280;69940;53.120;8.764;2023-08-12T12:37:58;101413.00;;;21.97;87.03
79705;BME280;69940;53.120;8.764;2023-08-12T12:40:28;101408.00;;;22.05;86.71
79705;BME280;69940;53.120;8.764;2023-08-12T12:42:59;101405.00;;;22.18;86.25
79705;BME280;69940;53.120;8.764;2023-08-12T12:45:28;101401.00;;;22.33;86.23
79705;BME280;69940;53.120;8.764;2023-08-12T12:47:58;101399.00;;;22.51;85.66
79705;BME280;69940;53.120;8.764;2023-08-12T12:50:28;101399.00;;;22.65;84.52
79705;BME280;69940;53.120;8.764;2023-08-12T12:52:58;101397.00;;;22.76;84.41
79705;BME280;69940;53.120;8.764;2023-08-12T12:55:28;101395.00;;;22.84;84.52
79705;BME280;69940;53.120;8.764;2023-08-12T12:57:58;101394.00;;;22.89;84.85
79705;BME280;69940;53.120;8.764;2023-08-12T13:00:28;101391.00;;;22.91;84.23
79705;BME280;69940;53.120;8.764;2023-08-12T13:02:58;101388.00;;;22.91;84.37
79705;BME280;69940;53.120;8.764;2023-08-12T13:05:28;101383.00;;;22.93;84.43
79705;BME280;69940;53.120;8.764;2023-08-12T13:07:58;101379.00;;;22.95;84.74
79705;BME280;69940;53.120;8.764;2023-08-12T13:10:28;101376.00;;;22.96;84.60
79705;BME280;69940;53.120;8.764;2023-08-12T13:12:58;101371.00;;;23.00;84.59